Time;durP1;ratioP1;P1;durP2;ratioP2;P2;SDS_P1;SDS_P2;PMS_P1;PMS_P2;Temp;Humidity;BMP_temperature;BMP_pressure;BME280_temperature;BME280_humidity;BME280_pressure;Samples;Min_cycle;Max_cycle;Signal;HPM_P1;HPM_P2
2021/04/20 00:01:37;;;;;;;20.10;5.97;;;;;;;2.74;72.31;98785.58;2177130;82;21097;-76
2021/04/20 00:04:39;;;;;;;19.10;6.30;;;;;;;2.85;71.95;98787.86;2164534;82;21596;-74
2021/04/20 00:07:41;;;;;;;22.00;7.35;;;;;;;2.87;71.48;98784.30;2177435;82;21307;-76
2021/04/20 00:10:43;;;;;;;25.82;8.88;;;;;;;2.90;71.78;98780.35;2164496;82;21152;-75
2021/04/20 00:13:46;;;;;;;28.32;10.43;;;;;;;2.98;71.71;98780.11;2178508;80;21699;-75
2021/04/20 00:16:48;;;;;;;27.02;10.40;;;;;;;2.99;71.97;98770.16;2211425;80;21138;-74
2021/04/20 00:19:50;;;;;;;27.07;10.15;;;;;;;3.09;71.89;98776.73;2211358;80;21629;-76
2021/04/20 00:22:52;;;;;;;19.52;6.10;;;;;;;3.16;71.96;98768.33;2211376;80;21555;-75
2021/04/20 00:25:54;;;;;;;20.72;6.08;;;;;;;3.23;72.05;98763.35;2211307;80;21575;-74
2021/04/20 00:28:55;;;;;;;19.55;6.25;;;;;;;3.23;71.85;98763.35;2259343;78;21308;-74
2021/04/20 00:31:58;;;;;;;25.52;9.35;;;;;;;3.24;72.00;98763.73;2259310;79;21717;-74
2021/04/20 00:35:00;;;;;;;19.80;6.47;;;;;;;3.21;72.02;98763.83;2259349;79;21252;-74
2021/04/20 00:38:01;;;;;;;22.35;7.45;;;;;;;3.25;72.03;98765.89;2259424;79;21289;-75
2021/04/20 00:41:03;;;;;;;24.40;9.10;;;;;;;3.31;72.05;98753.19;2259294;79;21308;-78
2021/04/20 00:44:05;;;;;;;29.35;10.48;;;;;;;3.40;72.11;98748.98;2259670;79;21146;-77
2021/04/20 00:47:07;;;;;;;29.32;11.22;;;;;;;3.43;71.88;98748.88;2259289;78;21126;-73
2021/04/20 00:50:09;;;;;;;33.38;12.90;;;;;;;3.50;72.24;98739.98;2259846;78;21110;-76
2021/04/20 00:53:11;;;;;;;80.70;27.37;;;;;;;3.57;72.11;98745.37;2259374;78;21257;-74
2021/04/20 00:56:17;;;;;;;;;;;;;;;3.55;73.80;98751.07;2261887;78;21260;-73
2021/04/20 00:59:18;;;;;;;33.30;13.15;;;;;;;3.58;73.06;98750.13;2259180;79;20504;-74
2021/04/20 01:02:20;;;;;;;27.77;10.20;;;;;;;3.54;72.71;98742.05;2259382;78;21792;-75
2021/04/20 01:05:22;;;;;;;30.43;11.40;;;;;;;3.45;72.74;98732.83;2259683;78;21197;-74
2021/04/20 01:08:24;;;;;;;36.77;13.43;;;;;;;3.50;72.70;98733.50;2227696;79;21288;-74
2021/04/20 01:11:26;;;;;;;30.37;11.50;;;;;;;3.59;73.02;98727.16;2227696;79;21720;-79
2021/04/20 01:14:29;;;;;;;;;;;;;;;3.73;72.65;98730.13;2261806;78;21300;-74
2021/04/20 01:17:31;;;;;;;26.65;10.08;;;;;;;3.70;72.50;98731.99;2259351;79;20260;-77
2021/04/20 01:20:33;;;;;;;28.83;11.38;;;;;;;3.71;72.88;98730.64;2259692;78;21173;-77
2021/04/20 01:23:35;;;;;;;30.70;12.03;;;;;;;3.83;72.92;98723.33;2259835;78;21138;-74
2021/04/20 01:26:37;;;;;;;29.72;11.75;;;;;;;4.08;72.90;98725.89;2259818;78;21135;-73
2021/04/20 01:29:39;;;;;;;27.07;10.53;;;;;;;4.19;72.52;98722.91;2227619;79;21273;-76
2021/04/20 01:32:42;;;;;;;23.95;7.60;;;;;;;3.99;72.62;98718.85;2259313;78;21272;-74
2021/04/20 01:35:45;;;;;;;23.02;7.03;;;;;;;3.89;72.42;98725.70;2259512;79;21687;-75
2021/04/20 01:38:47;;;;;;;19.80;6.33;;;;;;;3.84;72.75;98722.44;2259291;79;21733;-74
2021/04/20 01:41:48;;;;;;;23.67;7.62;;;;;;;3.83;72.73;98718.14;2259329;78;21690;-75
2021/04/20 01:44:50;;;;;;;20.88;7.20;;;;;;;3.76;72.68;98720.93;2259267;79;21727;-75
2021/04/20 01:47:52;;;;;;;21.50;7.15;;;;;;;3.77;72.86;98720.50;2259276;79;21253;-76
2021/04/20 01:50:54;;;;;;;23.87;8.38;;;;;;;3.87;73.12;98726.22;2259217;79;21281;-74
2021/04/20 01:53:57;;;;;;;22.27;8.70;;;;;;;3.93;72.92;98722.94;2259810;79;21130;-74
2021/04/20 01:56:59;;;;;;;25.37;9.78;;;;;;;4.00;72.77;98722.28;2227433;79;21261;-74
2021/04/20 02:00:01;;;;;;;26.05;9.35;;;;;;;3.98;72.78;98727.98;2259704;79;21161;-73
2021/04/20 02:03:03;;;;;;;30.82;12.05;;;;;;;4.11;73.13;98720.61;2259243;79;21539;-76
2021/04/20 02:06:05;;;;;;;31.75;12.88;;;;;;;4.22;73.14;98725.39;2227633;79;21276;-75
2021/04/20 02:09:07;;;;;;;36.73;14.65;;;;;;;4.27;73.52;98726.09;2259337;78;21273;-74
2021/04/20 02:12:09;;;;;;;36.58;15.65;;;;;;;4.25;73.59;98723.98;2259352;78;21277;-74
2021/04/20 02:15:11;;;;;;;33.05;14.33;;;;;;;4.21;73.50;98727.16;2259202;78;21296;-74
2021/04/20 02:18:12;;;;;;;33.35;14.13;;;;;;;4.18;73.73;98725.97;2259324;78;21117;-73
2021/04/20 02:21:14;;;;;;;36.58;15.13;;;;;;;4.17;74.02;98728.17;2259281;78;21284;-73
2021/04/20 02:24:16;;;;;;;34.40;15.15;;;;;;;4.21;73.99;98727.16;2259413;78;21277;-73
2021/04/20 02:27:19;;;;;;;26.93;10.23;;;;;;;4.16;73.95;98729.89;2259336;78;21276;-76
2021/04/20 02:30:21;;;;;;;26.42;9.68;;;;;;;4.15;73.36;98726.06;2259248;78;21319;-74
2021/04/20 02:33:23;;;;;;;25.48;9.63;;;;;;;3.99;73.21;98730.95;2259421;79;21265;-74
2021/04/20 02:36:25;;;;;;;23.95;9.05;;;;;;;3.91;73.65;98731.24;2259373;79;21692;-75
2021/04/20 02:39:27;;;;;;;26.62;10.28;;;;;;;3.88;73.15;98733.95;2259346;78;21252;-74
2021/04/20 02:42:29;;;;;;;29.98;10.90;;;;;;;3.70;73.15;98731.53;2211122;80;21321;-74
2021/04/20 02:45:31;;;;;;;30.35;12.10;;;;;;;3.53;73.91;98728.67;2211122;80;21732;-77
2021/04/20 02:48:33;;;;;;;27.85;10.68;;;;;;;3.41;74.68;98724.75;2211228;80;21589;-74
2021/04/20 02:51:35;;;;;;;26.15;10.05;;;;;;;3.39;74.29;98731.29;2211333;80;21570;-74
2021/04/20 02:54:37;;;;;;;31.33;12.05;;;;;;;3.29;74.08;98733.33;2211136;80;21737;-74
2021/04/20 02:57:39;;;;;;;62.75;25.80;;;;;;;3.23;74.10;98733.97;2180650;80;21744;-75
2021/04/20 03:00:41;;;;;;;47.80;19.25;;;;;;;3.23;74.22;98728.36;2211123;80;21277;-76
2021/04/20 03:03:43;;;;;;;71.75;28.27;;;;;;;3.23;74.45;98724.47;2211215;80;21705;-74
2021/04/20 03:06:45;;;;;;;32.13;13.22;;;;;;;3.23;74.43;98724.89;2211048;80;21285;-74
2021/04/20 03:09:47;;;;;;;32.20;12.88;;;;;;;3.26;74.59;98725.66;2211062;80;21709;-74
2021/04/20 03:12:49;;;;;;;35.05;13.35;;;;;;;3.11;74.58;98727.45;2259456;78;21276;-74
2021/04/20 03:15:51;;;;;;;39.65;15.78;;;;;;;2.93;75.79;98728.44;2259129;78;21296;-74
2021/04/20 03:18:53;;;;;;;27.48;10.03;;;;;;;3.00;75.06;98729.06;2259233;79;21281;-75
2021/04/20 03:21:55;;;;;;;27.32;9.85;;;;;;;2.97;74.70;98729.17;2259309;78;21681;-74
2021/04/20 03:24:57;;;;;;;27.02;9.98;;;;;;;2.85;74.45;98730.41;2259140;79;21275;-75
2021/04/20 03:28:02;;;;;;;35.17;13.68;;;;;;;2.83;74.30;98733.94;2259572;79;21269;-75
2021/04/20 03:31:04;;;;;;;43.58;16.48;;;;;;;2.85;74.52;98727.81;2211058;80;21301;-74
2021/04/20 03:34:06;;;;;;;41.05;15.98;;;;;;;2.97;74.05;98723.98;2211164;80;21158;-74
2021/04/20 03:37:08;;;;;;;41.37;16.00;;;;;;;2.96;73.96;98721.02;2211450;80;21138;-74
2021/04/20 03:40:10;;;;;;;40.28;16.50;;;;;;;2.93;73.66;98731.45;2211117;80;21265;-75
2021/04/20 03:43:12;;;;;;;48.95;20.15;;;;;;;2.88;73.43;98731.60;2180676;80;21285;-75
2021/04/20 03:46:14;;;;;;;39.85;16.82;;;;;;;2.81;73.35;98734.45;2259534;78;21264;-76
2021/04/20 03:49:16;;;;;;;54.45;22.10;;;;;;;2.70;73.71;98738.64;2211067;80;21300;-74
2021/04/20 03:52:18;;;;;;;43.70;18.45;;;;;;;2.67;73.77;98733.56;2211088;80;21713;-77
2021/04/20 03:55:20;;;;;;;56.13;21.17;;;;;;;2.59;73.93;98728.16;2211261;80;21580;-75
2021/04/20 03:58:22;;;;;;;39.27;15.53;;;;;;;2.59;74.04;98738.98;2211373;80;21566;-74
2021/04/20 04:01:24;;;;;;;42.30;15.80;;;;;;;2.62;73.94;98735.45;2259436;78;21752;-75
2021/04/20 04:04:26;;;;;;;59.13;22.48;;;;;;;2.68;74.17;98736.56;2259386;78;21744;-74
2021/04/20 04:07:28;;;;;;;32.45;13.85;;;;;;;2.73;74.32;98736.83;2259617;78;21280;-74
2021/04/20 04:10:30;;;;;;;27.70;11.08;;;;;;;2.84;73.93;98735.18;2259751;78;21122;-75
2021/04/20 04:13:32;;;;;;;26.35;9.08;;;;;;;2.89;73.56;98738.95;2259384;78;21276;-74
2021/04/20 04:16:34;;;;;;;28.50;10.70;;;;;;;2.87;73.75;98742.85;2264086;79;21308;-73
2021/04/20 04:19:37;;;;;;;27.82;10.45;;;;;;;2.88;73.69;98744.55;2266638;78;21125;-74
2021/04/20 04:22:40;;;;;;;28.90;11.93;;;;;;;3.00;73.73;98743.78;2266404;78;21593;-74
2021/04/20 04:25:42;;;;;;;27.48;11.28;;;;;;;3.14;74.08;98748.08;2266509;78;21573;-74
2021/04/20 04:28:44;;;;;;;24.52;9.45;;;;;;;3.47;73.86;98737.50;2266657;78;21296;-77
2021/04/20 04:31:47;;;;;;;27.32;10.18;;;;;;;3.72;73.21;98742.72;2266581;79;21126;-75
2021/04/20 04:34:49;;;;;;;25.27;9.28;;;;;;;3.77;72.92;98737.37;2218547;80;21134;-76
2021/04/20 04:37:51;;;;;;;29.92;11.00;;;;;;;3.84;72.58;98744.50;2198420;81;21747;-73
2021/04/20 04:40:53;;;;;;;25.82;9.68;;;;;;;3.86;72.57;98738.33;2218404;80;21106;-73
2021/04/20 04:43:55;;;;;;;29.37;11.40;;;;;;;3.91;72.63;98735.13;2198653;81;21145;-74
2021/04/20 04:46:58;;;;;;;29.57;10.95;;;;;;;4.10;72.51;98739.21;2198166;81;21157;-74
2021/04/20 04:50:00;;;;;;;31.20;11.93;;;;;;;4.10;72.36;98738.38;2198304;81;21307;-74
2021/04/20 04:53:02;;;;;;;29.87;11.18;;;;;;;4.16;72.68;98746.77;2198420;81;21697;-74
2021/04/20 04:56:04;;;;;;;35.23;14.95;;;;;;;4.44;72.90;98740.59;2198261;80;21283;-74
2021/04/20 04:59:06;;;;;;;34.30;14.80;;;;;;;4.70;72.76;98736.16;2198299;81;21280;-73
2021/04/20 05:02:08;;;;;;;41.35;18.05;;;;;;;4.85;72.30;98743.33;2198393;81;21275;-73
2021/04/20 05:05:13;;;;;;;;;;;;;;;5.06;72.70;98735.62;2170540;81;21315;-73
2021/04/20 05:08:14;;;;;;;36.58;17.73;;;;;;;5.32;72.38;98736.33;2198278;81;20233;-73
2021/04/20 05:11:16;;;;;;;36.45;15.83;;;;;;;5.65;72.56;98741.03;2198334;81;21759;-73
2021/04/20 05:14:18;;;;;;;32.88;13.53;;;;;;;5.97;72.44;98737.06;2198296;81;21288;-74
2021/04/20 05:17:20;;;;;;;33.53;14.20;;;;;;;6.33;72.25;98742.03;2167585;81;21787;-73
2021/04/20 05:20:22;;;;;;;29.55;13.28;;;;;;;6.55;71.84;98735.37;2160423;82;21287;-73
2021/04/20 05:23:25;;;;;;;;;;;;;;;6.84;71.19;98740.98;2162825;82;21760;-73
2021/04/20 05:26:27;;;;;;;32.70;13.50;;;;;;;6.99;71.33;98740.27;2160681;82;20250;-74
2021/04/20 05:29:29;;;;;;;33.38;14.10;;;;;;;7.23;71.30;98730.42;2160609;82;21755;-73
2021/04/20 05:32:31;;;;;;;34.33;14.10;;;;;;;7.43;70.77;98733.36;2160442;82;21326;-74
2021/04/20 05:35:34;;;;;;;;;;;;;;;7.47;70.82;98730.15;2162955;82;21613;-73
2021/04/20 05:38:36;;;;;;;33.30;15.38;;;;;;;7.61;70.61;98734.22;2160586;82;20262;-73
2021/04/20 05:41:38;;;;;;;34.92;15.25;;;;;;;7.70;70.70;98736.83;2160432;82;21343;-73
2021/04/20 05:44:40;;;;;;;35.10;14.55;;;;;;;7.95;70.44;98740.78;2160496;82;21298;-73
2021/04/20 05:47:41;;;;;;;33.83;14.73;;;;;;;8.29;70.11;98739.03;2160391;82;21295;-73
2021/04/20 05:50:43;;;;;;;34.55;14.93;;;;;;;8.49;69.60;98732.30;2160413;82;21283;-73
2021/04/20 05:53:45;;;;;;;36.08;15.95;;;;;;;8.72;69.39;98734.13;2160407;82;21279;-73
2021/04/20 05:56:47;;;;;;;34.27;15.23;;;;;;;8.96;68.95;98737.14;2160449;82;21767;-73
2021/04/20 05:59:50;;;;;;;36.63;15.60;;;;;;;9.15;68.94;98734.36;2160637;82;21294;-73
2021/04/20 06:02:52;;;;;;;34.50;15.58;;;;;;;9.40;68.63;98738.66;2160395;82;21299;-74
2021/04/20 06:05:54;;;;;;;31.93;14.78;;;;;;;9.66;67.99;98730.59;2158389;81;21271;-74
2021/04/20 06:08:56;;;;;;;33.65;14.78;;;;;;;9.81;67.85;98732.76;2165007;81;21154;-72
2021/04/20 06:11:59;;;;;;;35.28;16.05;;;;;;;10.06;67.37;98731.67;2164404;82;21271;-73
2021/04/20 06:15:01;;;;;;;34.92;14.47;;;;;;;10.35;66.93;98738.73;2202230;81;21307;-73
2021/04/20 06:18:03;;;;;;;32.85;14.95;;;;;;;10.55;66.08;98733.09;2176382;82;21312;-73
2021/04/20 06:21:05;;;;;;;31.65;14.28;;;;;;;10.68;66.12;98738.41;2202221;81;21617;-75
2021/04/20 06:24:07;;;;;;;;;;;;;;;10.92;65.30;98737.34;2179556;82;21300;-74
2021/04/20 06:27:09;;;;;;;32.00;15.10;;;;;;;11.08;65.01;98731.11;2215750;80;20160;-73
2021/04/20 06:30:11;;;;;;;32.78;14.53;;;;;;;11.26;64.75;98728.60;2176918;82;21357;-72
2021/04/20 06:33:15;;;;;;;33.23;14.10;;;;;;;11.43;65.01;98725.33;2198134;81;21755;-75
2021/04/20 06:36:17;;;;;;;31.23;15.08;;;;;;;11.68;64.77;98721.92;2175537;81;21704;-73
2021/04/20 06:39:20;;;;;;;32.83;15.70;;;;;;;11.98;64.04;98723.91;2198278;81;21752;-73
2021/04/20 06:42:22;;;;;;;31.93;14.65;;;;;;;12.21;62.54;98732.84;2198139;81;21760;-74
2021/04/20 06:45:24;;;;;;;33.65;14.90;;;;;;;12.35;62.38;98727.45;2198124;81;21276;-74
2021/04/20 06:48:27;;;;;;;30.08;13.60;;;;;;;12.53;62.53;98729.73;2198152;81;21315;-72
2021/04/20 06:51:29;;;;;;;27.73;11.50;;;;;;;12.46;60.07;98727.55;2197958;81;21311;-71
2021/04/20 06:54:31;;;;;;;25.35;10.32;;;;;;;12.43;62.14;98730.39;2198073;81;21165;-72
2021/04/20 06:57:33;;;;;;;25.05;9.48;;;;;;;12.53;60.80;98728.42;2198369;81;21691;-72
2021/04/20 07:00:35;;;;;;;25.10;9.03;;;;;;;12.68;60.19;98731.77;2192896;81;21300;-74
2021/04/20 07:03:38;;;;;;;22.82;9.63;;;;;;;12.71;58.10;98721.85;2160157;82;21283;-72
2021/04/20 07:06:42;;;;;;;26.23;10.63;;;;;;;12.78;59.12;98728.84;2160288;82;21320;-72
2021/04/20 07:09:45;;;;;;;24.52;10.38;;;;;;;12.92;59.71;98730.01;2160178;82;21169;-72
2021/04/20 07:12:48;;;;;;;20.17;7.20;;;;;;;13.20;58.60;98725.36;2160541;82;21760;-73
2021/04/20 07:15:51;;;;;;;20.08;7.60;;;;;;;13.50;57.78;98722.30;2159346;82;21166;-73
2021/04/20 07:18:53;;;;;;;23.12;7.37;;;;;;;13.69;57.00;98709.03;2116980;84;21121;-74
2021/04/20 07:21:55;;;;;;;21.87;7.47;;;;;;;13.81;56.16;98721.30;2132353;83;21166;-72
2021/04/20 07:24:57;;;;;;;20.30;6.70;;;;;;;13.86;54.97;98717.84;2116639;84;21158;-72
2021/04/20 07:28:00;;;;;;;20.72;6.85;;;;;;;13.88;52.20;98713.77;2132418;83;21305;-71
2021/04/20 07:31:02;;;;;;;17.40;5.20;;;;;;;13.86;54.41;98719.16;2137539;83;21339;-77
2021/04/20 07:34:04;;;;;;;18.07;6.08;;;;;;;14.09;51.56;98715.21;2164415;82;21770;-74
2021/04/20 07:37:06;;;;;;;18.82;6.12;;;;;;;14.33;54.51;98723.52;2137762;83;21268;-72
2021/04/20 07:40:08;;;;;;;;;;;;;;;14.40;51.33;98718.61;2166882;82;21274;-73
2021/04/20 07:43:10;;;;;;;19.00;6.20;;;;;;;14.17;53.21;98716.78;2136908;82;20178;-74
2021/04/20 07:46:12;;;;;;;17.82;4.97;;;;;;;14.37;53.05;98707.31;2164415;82;21278;-76
2021/04/20 07:49:15;;;;;;;17.35;5.42;;;;;;;14.78;51.97;98700.22;2164532;82;21639;-72
2021/04/20 07:52:17;;;;;;;15.00;4.90;;;;;;;15.17;50.48;98701.44;2137080;82;21274;-71
2021/04/20 07:55:19;;;;;;;;;;;;;;;15.02;50.40;98700.04;2166890;82;21281;-72
2021/04/20 07:58:21;;;;;;;16.42;4.70;;;;;;;14.88;51.81;98705.97;2165058;82;20155;-73
2021/04/20 08:01:23;;;;;;;;;;;;;;;14.76;50.92;98699.02;2128803;84;21283;-72
2021/04/20 08:04:26;;;;;;;16.12;4.72;;;;;;;14.58;48.74;98695.18;2164422;82;20251;-72
2021/04/20 08:07:29;;;;;;;17.05;4.90;;;;;;;14.18;49.55;98711.05;2126144;84;21308;-72
2021/04/20 08:10:31;;;;;;;17.62;5.17;;;;;;;13.75;49.74;98708.59;2164373;82;21625;-74
2021/04/20 08:13:35;;;;;;;14.83;4.42;;;;;;;13.44;50.17;98704.78;2109484;84;21268;-71
2021/04/20 08:16:37;;;;;;;15.72;5.08;;;;;;;13.41;51.48;98701.89;2147616;81;21601;-73
2021/04/20 08:19:39;;;;;;;;;;;;;;;13.53;50.50;98701.94;2200757;81;21276;-72
2021/04/20 08:22:41;;;;;;;14.40;4.20;;;;;;;13.37;50.61;98701.75;2192854;81;20272;-72
2021/04/20 08:25:44;;;;;;;11.70;3.80;;;;;;;13.35;50.01;98705.00;2153725;82;21335;-77
2021/04/20 08:28:46;;;;;;;9.25;3.37;;;;;;;13.46;47.00;98701.09;2153503;82;21629;-71
2021/04/20 08:31:48;;;;;;;11.60;3.37;;;;;;;13.51;46.09;98711.27;2153723;82;21603;-72
2021/04/20 08:34:51;;;;;;;10.38;3.40;;;;;;;13.22;46.30;98699.77;2153669;82;21142;-71
2021/04/20 08:37:53;;;;;;;13.08;3.52;;;;;;;12.99;45.94;98702.28;2153287;83;21349;-71
2021/04/20 08:40:55;;;;;;;12.85;3.77;;;;;;;12.99;46.49;98693.56;2153782;82;21256;-73
2021/04/20 08:43:57;;;;;;;;;;;;;;;13.34;47.82;98689.65;2156689;81;21582;-72
2021/04/20 08:46:59;;;;;;;14.40;3.77;;;;;;;13.87;46.67;98685.72;2153147;81;20227;-78
2021/04/20 08:50:02;;;;;;;11.75;3.77;;;;;;;14.13;45.94;98696.88;2153886;83;21298;-78
2021/04/20 08:53:04;;;;;;;12.03;3.42;;;;;;;13.80;44.00;98687.97;2154041;83;21330;-72
2021/04/20 08:56:07;;;;;;;12.63;3.40;;;;;;;13.69;46.94;98688.80;2153520;83;21322;-76
2021/04/20 08:59:09;;;;;;;8.25;3.30;;;;;;;14.19;45.60;98687.64;2153544;83;21735;-72
2021/04/20 09:02:14;;;;;;;10.80;3.30;;;;;;;14.91;43.25;98690.33;2153691;83;21302;-76
2021/04/20 09:05:16;;;;;;;10.95;3.60;;;;;;;15.04;42.95;98680.47;2153770;83;21608;-75
2021/04/20 09:08:18;;;;;;;;;;;;;;;14.97;42.90;98688.53;2156145;83;21282;-73
2021/04/20 09:11:21;;;;;;;14.07;4.45;;;;;;;14.88;42.12;98695.41;2153851;83;20289;-77
2021/04/20 09:14:23;;;;;;;11.53;3.72;;;;;;;14.73;43.49;98695.31;2153757;83;21606;-72
2021/04/20 09:17:25;;;;;;;12.93;3.70;;;;;;;14.99;43.80;98679.16;2153607;82;21321;-74
2021/04/20 09:20:27;;;;;;;14.70;4.15;;;;;;;15.55;43.79;98678.91;2153504;82;21296;-74
2021/04/20 09:23:29;;;;;;;17.95;4.72;;;;;;;15.65;43.07;98680.79;2153737;82;21732;-75
2021/04/20 09:26:31;;;;;;;13.43;4.00;;;;;;;15.63;44.34;98674.77;2153661;83;21285;-77
2021/04/20 09:29:33;;;;;;;11.88;3.52;;;;;;;15.63;43.40;98672.98;2153730;82;21594;-72
2021/04/20 09:32:35;;;;;;;11.55;3.22;;;;;;;15.53;39.95;98672.06;2153631;82;21297;-72
2021/04/20 09:35:38;;;;;;;12.18;3.67;;;;;;;15.35;42.57;98670.49;2153528;82;21288;-76
2021/04/20 09:38:41;;;;;;;14.53;4.85;;;;;;;15.81;42.75;98669.78;2153548;82;21285;-73
2021/04/20 09:41:43;;;;;;;;;;;;;;;16.19;42.04;98670.45;2185105;81;21287;-72
2021/04/20 09:44:45;;;;;;;14.70;3.85;;;;;;;16.36;39.29;98664.16;2191314;81;20429;-70
2021/04/20 09:47:47;;;;;;;13.50;3.80;;;;;;;16.46;41.41;98665.02;2191203;81;21728;-72
2021/04/20 09:50:50;;;;;;;;;;;;;;;16.64;40.99;98667.87;2193452;81;21284;-74
2021/04/20 09:53:52;;;;;;;11.57;3.62;;;;;;;17.36;41.41;98669.00;2191080;81;20122;-75
2021/04/20 09:56:54;;;;;;;15.48;4.47;;;;;;;17.87;38.35;98658.52;2191299;81;21285;-74
2021/04/20 09:59:57;;;;;;;11.50;4.00;;;;;;;17.94;40.48;98662.77;2191061;81;21296;-70
2021/04/20 10:03:00;;;;;;;13.30;3.75;;;;;;;18.09;40.65;98666.63;2190997;81;21146;-70
2021/04/20 10:06:02;;;;;;;11.00;3.90;;;;;;;18.06;38.47;98664.27;2158840;81;21286;-71
2021/04/20 10:09:04;;;;;;;11.70;4.08;;;;;;;18.00;38.35;98669.67;2191454;81;21149;-70
2021/04/20 10:12:06;;;;;;;12.80;3.90;;;;;;;18.11;38.66;98661.17;2191015;81;21279;-70
2021/04/20 10:15:09;;;;;;;10.43;3.50;;;;;;;18.28;38.85;98665.70;2191152;81;21556;-71
2021/04/20 10:18:11;;;;;;;9.13;3.42;;;;;;;18.27;38.52;98652.58;2175171;81;21148;-70
2021/04/20 10:21:13;;;;;;;12.98;4.05;;;;;;;17.46;37.45;98649.44;2163340;81;21735;-70
2021/04/20 10:24:15;;;;;;;10.50;3.60;;;;;;;16.69;38.81;98653.72;2259143;79;21284;-71
2021/04/20 10:27:18;;;;;;;11.85;3.50;;;;;;;16.17;39.25;98650.38;2259261;79;21312;-70
2021/04/20 10:30:20;;;;;;;14.30;3.27;;;;;;;16.06;40.05;98653.95;2259436;79;21292;-71
2021/04/20 10:33:22;;;;;;;11.33;3.90;;;;;;;15.94;39.46;98651.39;2258913;79;21315;-71
2021/04/20 10:36:24;;;;;;;;;;;;;;;16.28;40.00;98651.11;2261670;79;21551;-71
2021/04/20 10:39:26;;;;;;;12.85;3.50;;;;;;;17.01;38.50;98639.45;2259198;79;20220;-71
2021/04/20 10:42:28;;;;;;;10.28;3.40;;;;;;;16.97;38.00;98641.52;2259139;79;21280;-71
2021/04/20 10:45:30;;;;;;;10.95;3.55;;;;;;;16.59;36.97;98649.75;2227160;79;21268;-71
2021/04/20 10:48:32;;;;;;;9.95;3.00;;;;;;;16.33;37.40;98634.83;2272992;78;21747;-71
2021/04/20 10:51:34;;;;;;;10.05;3.33;;;;;;;15.99;36.72;98636.93;2282412;78;21142;-71
2021/04/20 10:54:38;;;;;;;9.93;3.50;;;;;;;15.58;37.52;98636.34;2283298;78;21114;-71
2021/04/20 10:57:40;;;;;;;12.33;3.80;;;;;;;15.45;39.21;98632.24;2283349;78;21267;-71
2021/04/20 11:00:42;;;;;;;8.13;2.87;;;;;;;15.49;38.35;98630.53;2283369;78;21585;-71
2021/04/20 11:03:44;;;;;;;9.18;3.10;;;;;;;15.57;38.99;98625.44;2283330;78;21169;-71
2021/04/20 11:06:46;;;;;;;11.90;3.42;;;;;;;15.72;38.44;98627.25;2283340;78;21181;-71
2021/04/20 11:09:48;;;;;;;10.78;3.58;;;;;;;15.92;38.31;98617.63;2283309;78;21125;-71
2021/04/20 11:12:50;;;;;;;10.45;3.02;;;;;;;16.66;39.85;98613.45;2283226;78;21604;-71
2021/04/20 11:15:52;;;;;;;12.13;3.37;;;;;;;17.78;39.07;98607.64;2283033;78;21688;-71
2021/04/20 11:18:54;;;;;;;11.60;3.55;;;;;;;18.69;35.74;98598.94;2283353;78;21719;-72
2021/04/20 11:21:56;;;;;;;9.15;3.27;;;;;;;19.34;36.03;98592.56;2248437;78;21706;-71
2021/04/20 11:24:58;;;;;;;;;;;;;;;19.47;31.63;98604.12;2256868;78;21264;-71
2021/04/20 11:28:01;;;;;;;9.50;3.22;;;;;;;18.97;32.58;98594.42;2229477;78;20180;-72
2021/04/20 11:31:03;;;;;;;;;;;;;;;17.93;32.63;98594.76;2228447;79;21309;-71
2021/04/20 11:34:05;;;;;;;9.80;3.17;;;;;;;17.57;34.89;98592.78;2225867;79;20408;-71
2021/04/20 11:37:07;;;;;;;;;;;;;;;17.65;35.33;98592.88;2228397;79;21284;-72
2021/04/20 11:40:09;;;;;;;12.63;3.67;;;;;;;18.59;36.64;98580.44;2226218;79;20475;-72
2021/04/20 11:43:11;;;;;;;11.63;3.50;;;;;;;19.58;36.34;98583.06;2225804;79;21265;-73
2021/04/20 11:46:13;;;;;;;;;;;;;;;20.07;31.58;98580.69;2228436;79;21126;-72
2021/04/20 11:49:18;;;;;;;11.53;3.17;;;;;;;20.04;32.83;98583.65;2225957;79;20480;-72
2021/04/20 11:52:20;;;;;;;9.05;3.22;;;;;;;19.02;31.39;98585.98;2222102;78;21274;-72
2021/04/20 11:55:22;;;;;;;8.08;3.00;;;;;;;18.48;33.29;98570.03;2223414;80;21638;-72
2021/04/20 11:58:24;;;;;;;11.88;3.40;;;;;;;18.48;33.29;98570.03;2225757;80;21689;-71
2021/04/20 12:01:26;;;;;;;;;;;;;;;18.09;33.97;98580.38;2228434;79;21285;-72
2021/04/20 12:04:29;;;;;;;9.73;3.20;;;;;;;17.66;33.71;98584.45;2226027;80;20252;-72
2021/04/20 12:07:32;;;;;;;8.88;3.00;;;;;;;17.22;33.33;98583.63;2205422;80;21292;-73
2021/04/20 12:10:35;;;;;;;9.03;3.00;;;;;;;17.70;35.28;98582.32;2225748;79;21300;-72
2021/04/20 12:13:37;;;;;;;7.97;3.02;;;;;;;18.75;34.52;98559.83;2225636;79;21127;-72
2021/04/20 12:16:39;;;;;;;14.75;3.80;;;;;;;19.34;32.34;98546.85;2225552;79;21134;-72
2021/04/20 12:19:41;;;;;;;8.60;3.00;;;;;;;19.34;32.34;98546.85;2230476;80;21139;-73
2021/04/20 12:22:43;;;;;;;;;;;;;;;20.05;31.53;98554.71;2257043;78;21284;-73
2021/04/20 12:25:46;;;;;;;9.30;3.50;;;;;;;20.29;30.64;98560.62;2271298;78;20124;-72
2021/04/20 12:28:48;;;;;;;9.55;3.00;;;;;;;20.34;29.80;98549.00;2271039;78;21747;-72
2021/04/20 12:31:50;;;;;;;;;;;;;;;20.00;28.73;98555.71;2273826;78;21728;-72
2021/04/20 12:34:53;;;;;;;8.10;2.90;;;;;;;19.38;30.11;98546.88;2271069;78;20240;-71
2021/04/20 12:37:56;;;;;;;11.12;3.52;;;;;;;19.04;30.42;98550.80;2271223;78;21260;-71
2021/04/20 12:40:58;;;;;;;14.18;3.52;;;;;;;18.57;32.31;98553.68;2271137;78;21125;-72
2021/04/20 12:44:00;;;;;;;11.12;3.58;;;;;;;18.32;32.44;98552.11;2271012;78;21704;-71
2021/04/20 12:47:03;;;;;;;9.40;3.20;;;;;;;18.10;32.03;98557.32;2270713;78;21331;-71
2021/04/20 12:50:05;;;;;;;9.30;3.37;;;;;;;17.60;31.66;98558.01;2255790;78;21303;-71
2021/04/20 12:53:07;;;;;;;14.95;5.17;;;;;;;17.19;31.97;98549.96;2231075;80;21171;-72
2021/04/20 12:56:09;;;;;;;25.65;9.58;;;;;;;17.08;32.59;98550.47;2230923;80;21146;-72
2021/04/20 12:59:11;;;;;;;7.80;3.20;;;;;;;17.25;31.99;98548.05;2230714;80;21288;-72
2021/04/20 13:02:13;;;;;;;10.38;3.20;;;;;;;17.68;33.10;98552.47;2230625;80;21727;-71
2021/04/20 13:05:16;;;;;;;;;;;;;;;17.56;32.87;98551.83;2233396;80;21700;-71
2021/04/20 13:08:19;;;;;;;12.70;3.52;;;;;;;17.41;34.28;98553.61;2230451;80;20218;-71
2021/04/20 13:11:21;;;;;;;11.65;3.40;;;;;;;17.72;34.53;98540.09;2230918;80;21177;-72
2021/04/20 13:14:24;;;;;;;10.18;3.25;;;;;;;18.34;34.52;98535.52;2230472;80;21244;-72
2021/04/20 13:17:26;;;;;;;8.53;3.25;;;;;;;18.93;33.50;98532.44;2229282;80;21288;-71
2021/04/20 13:20:28;;;;;;;11.08;3.87;;;;;;;19.38;31.70;98529.59;2219315;80;21570;-72
2021/04/20 13:23:30;;;;;;;;;;;;;;;19.63;32.50;98523.07;2221947;80;21141;-71
2021/04/20 13:26:35;;;;;;;10.45;3.25;;;;;;;20.14;32.73;98523.15;2188389;80;20518;-71
2021/04/20 13:29:37;;;;;;;8.80;3.42;;;;;;;20.49;30.10;98515.88;2219492;80;21573;-71
2021/04/20 13:32:39;;;;;;;9.73;3.25;;;;;;;20.06;29.79;98523.11;2219303;80;21684;-71
2021/04/20 13:35:41;;;;;;;12.68;3.50;;;;;;;19.88;30.17;98524.53;2219247;80;21141;-71
2021/04/20 13:38:44;;;;;;;9.98;3.10;;;;;;;20.01;30.71;98512.95;2219262;80;21574;-71
2021/04/20 13:41:46;;;;;;;;;;;;;;;20.28;30.73;98501.69;2221883;80;21292;-71
2021/04/20 13:44:48;;;;;;;11.25;3.72;;;;;;;19.96;28.92;98510.45;2219366;80;20131;-71
2021/04/20 13:47:50;;;;;;;7.97;3.17;;;;;;;19.64;30.57;98511.45;2219778;80;21284;-71
2021/04/20 13:50:53;;;;;;;;;;;;;;;19.60;29.68;98515.41;2221899;80;21149;-72
2021/04/20 13:53:55;;;;;;;9.00;3.10;;;;;;;19.02;30.22;98514.22;2219315;80;20489;-72
2021/04/20 13:56:57;;;;;;;9.30;3.12;;;;;;;18.98;30.28;98512.38;2219395;80;21296;-71
2021/04/20 13:59:59;;;;;;;9.80;3.20;;;;;;;19.44;29.11;98509.52;2219741;80;21280;-71
2021/04/20 14:03:01;;;;;;;;;;;;;;;19.76;29.55;98518.64;2222247;80;21299;-72
2021/04/20 14:06:03;;;;;;;10.98;3.37;;;;;;;19.53;28.36;98503.74;2219310;80;20166;-72
2021/04/20 14:09:05;;;;;;;6.47;2.85;;;;;;;19.18;30.27;98509.03;2219412;80;21287;-72
2021/04/20 14:12:07;;;;;;;;;;;;;;;19.17;30.35;98505.20;2221867;80;21581;-72
2021/04/20 14:15:09;;;;;;;10.48;2.98;;;;;;;19.35;30.21;98499.81;2219557;80;20140;-69
2021/04/20 14:18:11;;;;;;;11.28;3.50;;;;;;;19.48;30.36;98498.05;2220883;80;21344;-69